M. Luther — WDC7372 — position and weather

sailwx.info

Track history (hours):
 
Tides and Currents Weather Stations Pressure Air Temp Water Temp Dewpoint Dewpoint Depression Visibility Wind Speed Wind Dir Waves Ship Positions

M. Luther

Owner: Salmon Bay Barge Line, Inc., Seattle, WA. More information available from US FCC via Universal Licensing System and Coast Guard Vessel Documentation Center.

Last reported at 2014-Oct-21 16:03 UTC. Time now 2014-Oct-30 16:35 UTC.
Position N 47°33' W 122°21'.
Warning: this ship's position is 9 days out of date.

Length 28 m; draft 4.1 m.

Type: Tug. MMSI: 367070410.

Date/timePositionNaut miles runAvg speedWind from/ knotsBaromVisibWave heightAir tempDewpointWater temp
2014-Oct-21 16:03N 47°33' W 122°21'0 0.0
2014-Oct-21 16:01N 47°33' W 122°21'0 0.0
2014-Oct-21 15:33N 47°33' W 122°21'0 0.0
2014-Oct-21 15:31N 47°33' W 122°21'1 0.5
2014-Oct-21 14:33N 47°34' W 122°21'0 5.4
2014-Oct-21 14:31N 47°34' W 122°21'3 3.2
2014-Oct-21 13:33N 47°37' W 122°23'0 4.0
2014-Oct-21 13:30N 47°37' W 122°24'4 3.8
2014-Oct-21 12:33N 47°39' W 122°28'0 4.6
2014-Oct-21 12:30N 47°39' W 122°28'5 5.2
2014-Oct-21 11:33N 47°44' W 122°27'0 5.0
2014-Oct-21 11:30N 47°44' W 122°27'4 4.6
2014-Oct-21 10:33N 47°49' W 122°28'0 4.8
2014-Oct-21 10:30N 47°49' W 122°28'4 4.5
2014-Oct-21 09:34N 47°53' W 122°30'0 3.7
2014-Oct-21 09:30N 47°53' W 122°30'4 4.2
2014-Oct-21 08:34N 47°56' W 122°34'5 5.1
2014-Oct-21 07:33N 48°00' W 122°38'3 4.7
2014-Oct-21 06:49N 48°04' W 122°40'4 5.9
2014-Oct-21 06:13N 48°07' W 122°41'4 6.4
2014-Oct-21 05:33N 48°10' W 122°46'6 5.4
2014-Oct-21 04:25N 48°16' W 122°48'6 7.3
2014-Oct-21 03:32N 48°22' W 122°46'8 8.6
2014-Oct-21 02:33N 48°31' W 122°45'9 9.0
2014-Oct-21 01:33N 48°40' W 122°44'7 7.4
2014-Oct-21 00:33N 48°46' W 122°51'8 7.5
2014-Oct-20 23:32N 48°50' W 123°01'7 7.3
2014-Oct-20 22:34N 48°55' W 123°09'7 7.0
2014-Oct-20 21:34N 48°59' W 123°17'6 6.2
2014-Oct-20 20:34N 49°05' W 123°20'6 5.9
2014-Oct-20 19:34N 49°07' W 123°12'7 7.0
2014-Oct-20 18:33N 49°09' W 123°02'1 0.8
2014-Oct-20 17:29N 49°09' W 123°00'0 0.0
2014-Oct-20 16:30N 49°09' W 123°00'0 0.0
2014-Oct-20 15:24N 49°09' W 123°00'0 0.0
2014-Oct-20 14:30N 49°09' W 123°00'0 0.0
2014-Oct-20 13:18N 49°09' W 123°00'0 0.0
2014-Oct-20 12:30N 49°09' W 123°00'0 0.0
2014-Oct-20 11:30N 49°09' W 123°00'0 0.0
2014-Oct-20 10:30N 49°09' W 123°00'0 0.0
2014-Oct-20 09:24N 49°09' W 123°00'0 0.0
2014-Oct-20 08:30N 49°09' W 123°00'0 0.0
2014-Oct-20 07:30N 49°09' W 123°00'0 0.0
2014-Oct-20 06:29N 49°09' W 123°00'0 0.0
2014-Oct-20 05:29N 49°09' W 123°00'0 0.0
2014-Oct-20 04:29N 49°09' W 123°00'0 0.0
2014-Oct-20 03:29N 49°09' W 123°00'0 0.0
2014-Oct-20 02:29N 49°09' W 123°00'0 0.0
2014-Oct-20 01:32N 49°09' W 123°00'0 0.0
2014-Oct-20 00:32N 49°09' W 123°00'0 0.0
2014-Oct-19 23:26N 49°09' W 123°00'0 0.0
2014-Oct-19 22:32N 49°09' W 123°00'0 0.0
2014-Oct-19 21:32N 49°09' W 123°00'0 0.0
2014-Oct-19 20:29N 49°09' W 123°00'0 0.0
2014-Oct-19 19:32N 49°09' W 123°00'0 0.0
2014-Oct-19 18:29N 49°09' W 123°00'0 0.0
2014-Oct-19 17:32N 49°09' W 123°00'0 0.0
2014-Oct-19 16:32N 49°09' W 123°00'0 0.0
2014-Oct-19 15:29N 49°09' W 123°00'0 0.0
2014-Oct-19 14:29N 49°09' W 123°00'0 0.0
2014-Oct-19 13:29N 49°09' W 123°00'0 0.0
2014-Oct-19 12:29N 49°09' W 123°00'0 0.0
2014-Oct-19 11:32N 49°09' W 123°00'0 0.0
2014-Oct-19 10:29N 49°09' W 123°00'0 0.0
2014-Oct-19 09:33N 49°09' W 123°00'0 0.0
2014-Oct-19 08:33N 49°09' W 123°00'0 0.0
2014-Oct-19 07:33N 49°09' W 123°00'0 0.0
2014-Oct-19 06:33N 49°09' W 123°00'0 0.0
2014-Oct-19 05:33N 49°09' W 123°00'0 0.0
2014-Oct-19 04:33N 49°09' W 123°00'0 0.0
2014-Oct-19 03:33N 49°09' W 123°00'0 0.0
2014-Oct-19 02:33N 49°09' W 123°00'0 0.0
2014-Oct-19 01:33N 49°09' W 123°00'0 0.0
2014-Oct-19 00:33N 49°09' W 123°00'0 0.0
2014-Oct-18 23:33N 49°09' W 123°00'0 0.0
2014-Oct-18 22:33N 49°09' W 123°00'0 0.0
2014-Oct-18 21:33N 49°09' W 123°00'0 0.0
2014-Oct-18 20:32N 49°09' W 123°00'0 0.0
2014-Oct-18 19:33N 49°09' W 123°00'0 0.0
2014-Oct-18 18:33N 49°09' W 123°00'0 0.0
2014-Oct-18 17:33N 49°09' W 123°00'0 0.0
2014-Oct-18 16:33N 49°09' W 123°00'0 0.0
2014-Oct-18 15:33N 49°09' W 123°00'0 0.0
2014-Oct-18 14:33N 49°09' W 123°00'0 0.0
2014-Oct-18 13:33N 49°09' W 123°00'0 0.0
2014-Oct-18 12:33N 49°09' W 123°00'0 0.0
2014-Oct-18 11:33N 49°09' W 123°00'0 0.0
2014-Oct-18 10:33N 49°09' W 123°00'0 0.0
2014-Oct-18 09:33N 49°09' W 123°00'0 0.0
2014-Oct-18 08:33N 49°09' W 123°00'0 0.0
2014-Oct-18 07:33N 49°09' W 123°00'0 0.0
2014-Oct-18 06:33N 49°09' W 123°00'0 0.0
2014-Oct-18 05:33N 49°09' W 123°00'0 0.0
2014-Oct-18 04:33N 49°09' W 123°00'0 0.0
2014-Oct-18 03:33N 49°09' W 123°00'0 0.0
2014-Oct-18 02:33N 49°09' W 123°00'0 0.0
2014-Oct-18 01:33N 49°09' W 123°00'0 0.0
2014-Oct-18 00:33N 49°09' W 123°00'0 0.0
2014-Oct-17 23:33N 49°09' W 123°00'0 0.0
2014-Oct-17 22:33N 49°09' W 123°00'0 0.0
2014-Oct-17 21:31N 49°09' W 123°00'0 0.0
2014-Oct-17 20:33N 49°09' W 123°00'0 0.0
2014-Oct-17 19:32N 49°09' W 123°00'0 0.0
2014-Oct-17 18:33N 49°09' W 123°00'0 0.0
2014-Oct-17 17:31N 49°09' W 123°00'0 0.0
2014-Oct-17 16:33N 49°09' W 123°00'0 0.0
2014-Oct-17 15:33N 49°09' W 123°00'0 0.0
2014-Oct-17 14:32N 49°09' W 123°00'0 0.0
2014-Oct-17 13:32N 49°09' W 123°00'0 0.0
2014-Oct-17 12:33N 49°09' W 123°00'1 0.7
2014-Oct-17 11:33N 49°09' W 123°01'3 3.4
2014-Oct-17 10:33N 49°07' W 123°05'5 4.8
2014-Oct-17 09:33N 49°08' W 123°13'5 4.6
2014-Oct-17 08:33N 49°06' W 123°19'5 4.9
2014-Oct-17 07:33N 49°01' W 123°16'6 6.0
2014-Oct-17 06:33N 48°58' W 123°09'6 6.0
2014-Oct-17 05:33N 48°54' W 123°02'6 6.0
2014-Oct-17 04:33N 48°50' W 122°55'6 6.5
2014-Oct-17 03:33N 48°46' W 122°47'7 6.9
2014-Oct-17 02:33N 48°40' W 122°43'6 6.0
2014-Oct-17 01:33N 48°34' W 122°45'5 6.3
2014-Oct-17 00:48N 48°29' W 122°44'1 6.0
2014-Oct-17 00:33N 48°28' W 122°44'7 7.0
2014-Oct-16 23:33N 48°21' W 122°45'8 7.1
2014-Oct-16 22:24N 48°13' W 122°47'17 9.2
2014-Oct-16 20:33N 47°58' W 122°34'0 0.0
2014-Oct-16 20:33N 47°58' W 122°34'8 8.4
2014-Oct-16 19:33N 47°51' W 122°27'0 7.5
2014-Oct-16 19:33N 47°51' W 122°27'9 8.7
2014-Oct-16 18:33N 47°42' W 122°26'0 7.0
2014-Oct-16 18:33N 47°42' W 122°26'7 7.2
2014-Oct-16 17:33N 47°36' W 122°22'0 1.5
2014-Oct-16 17:33N 47°36' W 122°22'3 2.6
2014-Oct-16 16:33N 47°33' W 122°21'0 0.0
2014-Oct-16 16:33N 47°33' W 122°21'  
Track history (hours):
 
Tides and Currents Weather Stations Pressure Air Temp Water Temp Dewpoint Dewpoint Depression Visibility Wind Speed Wind Dir Waves Ship Positions

M. Luther

Owner: Salmon Bay Barge Line, Inc., Seattle, WA. More information available from US FCC via Universal Licensing System and Coast Guard Vessel Documentation Center.

Last reported at 2014-Oct-21 16:03 UTC. Time now 2014-Oct-30 16:35 UTC.
Position N 47°33' W 122°21'.
Warning: this ship's position is 9 days out of date.

Length 28 m; draft 4.1 m.

Type: Tug. MMSI: 367070410.

Date/timePositionNaut miles runAvg speedWind from/ knotsBaromVisibWave heightAir tempDewpointWater temp
2014-Oct-21 16:03N 47°33' W 122°21'0 0.0
2014-Oct-21 16:01N 47°33' W 122°21'0 0.0
2014-Oct-21 15:33N 47°33' W 122°21'0 0.0
2014-Oct-21 15:31N 47°33' W 122°21'1 0.5
2014-Oct-21 14:33N 47°34' W 122°21'0 5.4
2014-Oct-21 14:31N 47°34' W 122°21'3 3.2
2014-Oct-21 13:33N 47°37' W 122°23'0 4.0
2014-Oct-21 13:30N 47°37' W 122°24'4 3.8
2014-Oct-21 12:33N 47°39' W 122°28'0 4.6
2014-Oct-21 12:30N 47°39' W 122°28'5 5.2
2014-Oct-21 11:33N 47°44' W 122°27'0 5.0
2014-Oct-21 11:30N 47°44' W 122°27'4 4.6
2014-Oct-21 10:33N 47°49' W 122°28'0 4.8
2014-Oct-21 10:30N 47°49' W 122°28'4 4.5
2014-Oct-21 09:34N 47°53' W 122°30'0 3.7
2014-Oct-21 09:30N 47°53' W 122°30'4 4.2
2014-Oct-21 08:34N 47°56' W 122°34'5 5.1
2014-Oct-21 07:33N 48°00' W 122°38'3 4.7
2014-Oct-21 06:49N 48°04' W 122°40'4 5.9
2014-Oct-21 06:13N 48°07' W 122°41'4 6.4
2014-Oct-21 05:33N 48°10' W 122°46'6 5.4
2014-Oct-21 04:25N 48°16' W 122°48'6 7.3
2014-Oct-21 03:32N 48°22' W 122°46'8 8.6
2014-Oct-21 02:33N 48°31' W 122°45'9 9.0
2014-Oct-21 01:33N 48°40' W 122°44'7 7.4
2014-Oct-21 00:33N 48°46' W 122°51'8 7.5
2014-Oct-20 23:32N 48°50' W 123°01'7 7.3
2014-Oct-20 22:34N 48°55' W 123°09'7 7.0
2014-Oct-20 21:34N 48°59' W 123°17'6 6.2
2014-Oct-20 20:34N 49°05' W 123°20'6 5.9
2014-Oct-20 19:34N 49°07' W 123°12'7 7.0
2014-Oct-20 18:33N 49°09' W 123°02'1 0.8
2014-Oct-20 17:29N 49°09' W 123°00'0 0.0
2014-Oct-20 16:30N 49°09' W 123°00'0 0.0
2014-Oct-20 15:24N 49°09' W 123°00'0 0.0
2014-Oct-20 14:30N 49°09' W 123°00'0 0.0
2014-Oct-20 13:18N 49°09' W 123°00'0 0.0
2014-Oct-20 12:30N 49°09' W 123°00'0 0.0
2014-Oct-20 11:30N 49°09' W 123°00'0 0.0
2014-Oct-20 10:30N 49°09' W 123°00'0 0.0
2014-Oct-20 09:24N 49°09' W 123°00'0 0.0
2014-Oct-20 08:30N 49°09' W 123°00'0 0.0
2014-Oct-20 07:30N 49°09' W 123°00'0 0.0
2014-Oct-20 06:29N 49°09' W 123°00'0 0.0
2014-Oct-20 05:29N 49°09' W 123°00'0 0.0
2014-Oct-20 04:29N 49°09' W 123°00'0 0.0
2014-Oct-20 03:29N 49°09' W 123°00'0 0.0
2014-Oct-20 02:29N 49°09' W 123°00'0 0.0
2014-Oct-20 01:32N 49°09' W 123°00'0 0.0
2014-Oct-20 00:32N 49°09' W 123°00'0 0.0
2014-Oct-19 23:26N 49°09' W 123°00'0 0.0
2014-Oct-19 22:32N 49°09' W 123°00'0 0.0
2014-Oct-19 21:32N 49°09' W 123°00'0 0.0
2014-Oct-19 20:29N 49°09' W 123°00'0 0.0
2014-Oct-19 19:32N 49°09' W 123°00'0 0.0
2014-Oct-19 18:29N 49°09' W 123°00'0 0.0
2014-Oct-19 17:32N 49°09' W 123°00'0 0.0
2014-Oct-19 16:32N 49°09' W 123°00'0 0.0
2014-Oct-19 15:29N 49°09' W 123°00'0 0.0
2014-Oct-19 14:29N 49°09' W 123°00'0 0.0
2014-Oct-19 13:29N 49°09' W 123°00'0 0.0
2014-Oct-19 12:29N 49°09' W 123°00'0 0.0
2014-Oct-19 11:32N 49°09' W 123°00'0 0.0
2014-Oct-19 10:29N 49°09' W 123°00'0 0.0
2014-Oct-19 09:33N 49°09' W 123°00'0 0.0
2014-Oct-19 08:33N 49°09' W 123°00'0 0.0
2014-Oct-19 07:33N 49°09' W 123°00'0 0.0
2014-Oct-19 06:33N 49°09' W 123°00'0 0.0
2014-Oct-19 05:33N 49°09' W 123°00'0 0.0
2014-Oct-19 04:33N 49°09' W 123°00'0 0.0
2014-Oct-19 03:33N 49°09' W 123°00'0 0.0
2014-Oct-19 02:33N 49°09' W 123°00'0 0.0
2014-Oct-19 01:33N 49°09' W 123°00'0 0.0
2014-Oct-19 00:33N 49°09' W 123°00'0 0.0
2014-Oct-18 23:33N 49°09' W 123°00'0 0.0
2014-Oct-18 22:33N 49°09' W 123°00'0 0.0
2014-Oct-18 21:33N 49°09' W 123°00'0 0.0
2014-Oct-18 20:32N 49°09' W 123°00'0 0.0
2014-Oct-18 19:33N 49°09' W 123°00'0 0.0
2014-Oct-18 18:33N 49°09' W 123°00'0 0.0
2014-Oct-18 17:33N 49°09' W 123°00'0 0.0
2014-Oct-18 16:33N 49°09' W 123°00'0 0.0
2014-Oct-18 15:33N 49°09' W 123°00'0 0.0
2014-Oct-18 14:33N 49°09' W 123°00'0 0.0
2014-Oct-18 13:33N 49°09' W 123°00'0 0.0
2014-Oct-18 12:33N 49°09' W 123°00'0 0.0
2014-Oct-18 11:33N 49°09' W 123°00'0 0.0
2014-Oct-18 10:33N 49°09' W 123°00'0 0.0
2014-Oct-18 09:33N 49°09' W 123°00'0 0.0
2014-Oct-18 08:33N 49°09' W 123°00'0 0.0
2014-Oct-18 07:33N 49°09' W 123°00'0 0.0
2014-Oct-18 06:33N 49°09' W 123°00'0 0.0
2014-Oct-18 05:33N 49°09' W 123°00'0 0.0
2014-Oct-18 04:33N 49°09' W 123°00'0 0.0
2014-Oct-18 03:33N 49°09' W 123°00'0 0.0
2014-Oct-18 02:33N 49°09' W 123°00'0 0.0
2014-Oct-18 01:33N 49°09' W 123°00'0 0.0
2014-Oct-18 00:33N 49°09' W 123°00'0 0.0
2014-Oct-17 23:33N 49°09' W 123°00'0 0.0
2014-Oct-17 22:33N 49°09' W 123°00'0 0.0
2014-Oct-17 21:31N 49°09' W 123°00'0 0.0
2014-Oct-17 20:33N 49°09' W 123°00'0 0.0
2014-Oct-17 19:32N 49°09' W 123°00'0 0.0
2014-Oct-17 18:33N 49°09' W 123°00'0 0.0
2014-Oct-17 17:31N 49°09' W 123°00'0 0.0
2014-Oct-17 16:33N 49°09' W 123°00'0 0.0
2014-Oct-17 15:33N 49°09' W 123°00'0 0.0
2014-Oct-17 14:32N 49°09' W 123°00'0 0.0
2014-Oct-17 13:32N 49°09' W 123°00'0 0.0
2014-Oct-17 12:33N 49°09' W 123°00'1 0.7
2014-Oct-17 11:33N 49°09' W 123°01'3 3.4
2014-Oct-17 10:33N 49°07' W 123°05'5 4.8
2014-Oct-17 09:33N 49°08' W 123°13'5 4.6
2014-Oct-17 08:33N 49°06' W 123°19'5 4.9
2014-Oct-17 07:33N 49°01' W 123°16'6 6.0
2014-Oct-17 06:33N 48°58' W 123°09'6 6.0
2014-Oct-17 05:33N 48°54' W 123°02'6 6.0
2014-Oct-17 04:33N 48°50' W 122°55'6 6.5
2014-Oct-17 03:33N 48°46' W 122°47'7 6.9
2014-Oct-17 02:33N 48°40' W 122°43'6 6.0
2014-Oct-17 01:33N 48°34' W 122°45'5 6.3
2014-Oct-17 00:48N 48°29' W 122°44'1 6.0
2014-Oct-17 00:33N 48°28' W 122°44'7 7.0
2014-Oct-16 23:33N 48°21' W 122°45'8 7.1
2014-Oct-16 22:24N 48°13' W 122°47'17 9.2
2014-Oct-16 20:33N 47°58' W 122°34'0 0.0
2014-Oct-16 20:33N 47°58' W 122°34'8 8.4
2014-Oct-16 19:33N 47°51' W 122°27'0 7.5
2014-Oct-16 19:33N 47°51' W 122°27'9 8.7
2014-Oct-16 18:33N 47°42' W 122°26'0 7.0
2014-Oct-16 18:33N 47°42' W 122°26'7 7.2
2014-Oct-16 17:33N 47°36' W 122°22'0 1.5
2014-Oct-16 17:33N 47°36' W 122°22'3 2.6
2014-Oct-16 16:33N 47°33' W 122°21'0 0.0
2014-Oct-16 16:33N 47°33' W 122°21'  

Dump ship's entire track history